Viborg, Denmark
Current Conditions -  °F | °C
As of 10:20 AM on Sunday 21 Dec 2014 (Local Time) from EKKA Reporting Station
Few Clouds Few Clouds  
Wind Chill: 36°   Ceiling: Unl
Heat Index: 41°   Visibility: 6mi
Dew Point: 39°   Wind: 8mph
Humidity: 93%   Direction: 220°SW
Pressure: 29.94"   Gusts: NA
Location:  56.45°N, 9.4°E
Report Text: EKKA 210920Z AUTO 22007KT 9999NDV FEW025/// FEW100///05/04 Q1014
Loading
Personal Weather Stations






























Interactive Weather Map New forecast layout! Learn more

10-Day Weather Forecast

Advertisements
Track Severe Weather on mobile